地図

経路データ

SID SEASON NUMBER BASIN SUBBASIN NAME ISO_TIME NATURE LAT LON WMO_WIND WMO_PRES WMO_AGENCY TRACK_TYPE DIST2LAND LANDFALL IFLAG USA_AGENCY USA_ATCF_ID USA_LAT USA_LON USA_RECORD USA_STATUS USA_WIND USA_PRES USA_SSHS USA_R34_NE USA_R34_SE USA_R34_SW USA_R34_NW USA_R50_NE USA_R50_SE USA_R50_SW USA_R50_NW USA_R64_NE USA_R64_SE USA_R64_SW USA_R64_NW USA_POCI USA_ROCI USA_RMW USA_EYE TOKYO_LAT TOKYO_LON TOKYO_GRADE TOKYO_WIND TOKYO_PRES TOKYO_R50_DIR TOKYO_R50_LONG TOKYO_R50_SHORT TOKYO_R30_DIR TOKYO_R30_LONG TOKYO_R30_SHORT TOKYO_LAND CMA_LAT CMA_LON CMA_CAT CMA_WIND CMA_PRES HKO_LAT HKO_LON HKO_CAT HKO_WIND HKO_PRES NEWDELHI_LAT NEWDELHI_LON NEWDELHI_GRADE NEWDELHI_WIND NEWDELHI_PRES NEWDELHI_CI NEWDELHI_DP NEWDELHI_POCI REUNION_LAT REUNION_LON REUNION_TYPE REUNION_WIND REUNION_PRES REUNION_TNUM REUNION_CI REUNION_RMW REUNION_R34_NE REUNION_R34_SE REUNION_R34_SW REUNION_R34_NW REUNION_R50_NE REUNION_R50_SE REUNION_R50_SW REUNION_R50_NW REUNION_R64_NE REUNION_R64_SE REUNION_R64_SW REUNION_R64_NW BOM_LAT BOM_LON BOM_TYPE BOM_WIND BOM_PRES BOM_TNUM BOM_CI BOM_RMW BOM_R34_NE BOM_R34_SE BOM_R34_SW BOM_R34_NW BOM_R50_NE BOM_R50_SE BOM_R50_SW BOM_R50_NW BOM_R64_NE BOM_R64_SE BOM_R64_SW BOM_R64_NW BOM_ROCI BOM_POCI BOM_EYE BOM_POS_METHOD BOM_PRES_METHOD NADI_LAT NADI_LON NADI_CAT NADI_WIND NADI_PRES WELLINGTON_LAT WELLINGTON_LON WELLINGTON_WIND WELLINGTON_PRES DS824_LAT DS824_LON DS824_STAGE DS824_WIND DS824_PRES TD9636_LAT TD9636_LON TD9636_STAGE TD9636_WIND TD9636_PRES TD9635_LAT TD9635_LON TD9635_WIND TD9635_PRES TD9635_ROCI NEUMANN_LAT NEUMANN_LON NEUMANN_CLASS NEUMANN_WIND NEUMANN_PRES MLC_LAT MLC_LON MLC_CLASS MLC_WIND MLC_PRES USA_GUST BOM_GUST BOM_GUST_PER REUNION_GUST REUNION_GUST_PER USA_SEAHGT USA_SEARAD_NE USA_SEARAD_SE USA_SEARAD_SW USA_SEARAD_NW STORM_SPEED STORM_DIR
1983167N05145 1983 26 WP MM SARAH 1983-06-16 00:00:00 NR 4.90000 145.400 main 795 795 __________O___ -1 4.90000 145.400 0 7 280
1983167N05145 1983 26 WP MM SARAH 1983-06-16 03:00:00 NR 4.96725 145.031 main 815 815 __________P___ -1 4.96725 145.031 0 7 280
1983167N05145 1983 26 WP MM SARAH 1983-06-16 06:00:00 NR 5.03392 144.663 main 823 823 __________P___ -1 5.03392 144.663 0 7 280
1983167N05145 1983 26 WP MM SARAH 1983-06-16 09:00:00 NR 5.09961 144.296 main 846 846 __________P___ -1 5.09961 144.296 0 7 280
1983167N05145 1983 26 WP MM SARAH 1983-06-16 12:00:00 NR 5.16395 143.931 main 871 871 __________P___ -1 5.16395 143.931 0 7 280
1983167N05145 1983 26 WP MM SARAH 1983-06-16 15:00:00 NR 5.22654 143.568 main 883 883 __________P___ -1 5.22654 143.568 0 7 280
1983167N05145 1983 26 WP MM SARAH 1983-06-16 18:00:00 NR 5.28699 143.208 main 911 904 __________P___ -1 5.28699 143.208 0 7 279
1983167N05145 1983 26 WP MM SARAH 1983-06-16 21:00:00 NR 5.34494 142.852 main 904 901 __________P___ -1 5.34494 142.852 0 7 279
1983167N05145 1983 26 WP MM SARAH 1983-06-17 00:00:00 NR 5.40000 142.500 main 905 895 __________O___ -1 5.40000 142.500 0 7 279
1983167N05145 1983 26 WP MM SARAH 1983-06-17 03:00:00 NR 5.45206 142.149 main 901 887 __________P___ -1 5.45206 142.149 0 7 278
1983167N05145 1983 26 WP MM SARAH 1983-06-17 06:00:00 NR 5.50201 141.781 main 887 871 __________P___ -1 5.50201 141.781 0 8 277
1983167N05145 1983 26 WP MM SARAH 1983-06-17 09:00:00 NR 5.55098 141.372 main 881 860 __________P___ -1 5.55098 141.372 0 9 276
1983167N05145 1983 26 WP MM SARAH 1983-06-17 12:00:00 NR 5.60000 140.900 main 860 846 __________O___ -1 5.60000 140.900 0 11 276
1983167N05145 1983 26 WP MM SARAH 1983-06-17 15:00:00 NR 5.66678 140.267 main 850 832 __________P___ -1 5.66678 140.267 0 13 276
1983167N05145 1983 26 WP MM SARAH 1983-06-17 18:00:00 NR 5.73078 139.583 main 832 815 __________P___ -1 5.73078 139.583 0 13 275
1983167N05145 1983 26 WP MM SARAH 1983-06-17 21:00:00 NR 5.77929 138.932 main 811 790 __________P___ -1 5.77929 138.932 0 12 273
1983167N05145 1983 26 WP MM SARAH 1983-06-18 00:00:00 NR 5.80000 138.400 main 790 778 __________O___ -1 5.80000 138.400 0 8 268
1983167N05145 1983 26 WP MM SARAH 1983-06-18 03:00:00 NR 5.75793 138.124 main 778 764 __________P___ -1 5.75793 138.124 0 4 256
1983167N05145 1983 26 WP MM SARAH 1983-06-18 06:00:00 NR 5.69189 137.967 main 764 750 __________P___ -1 5.69189 137.967 0 3 245
1983167N05145 1983 26 WP MM SARAH 1983-06-18 09:00:00 NR 5.62993 137.852 main 750 743 __________P___ -1 5.62993 137.852 0 3 251
1983167N05145 1983 26 WP MM SARAH 1983-06-18 12:00:00 NR 5.60000 137.700 main 743 733 __________O___ -1 5.60000 137.700 0 5 267
1983167N05145 1983 26 WP MM SARAH 1983-06-18 15:00:00 NR 5.60662 137.400 main 733 725 __________P___ -1 5.60662 137.400 0 6 275
1983167N05145 1983 26 WP MM SARAH 1983-06-18 18:00:00 NR 5.65258 137.052 main 736 727 __________P___ -1 5.65258 137.052 0 7 281
1983167N05145 1983 26 WP MM SARAH 1983-06-18 21:00:00 NR 5.74723 136.678 main 727 727 __________P___ -1 5.74723 136.678 0 8 288
1983167N05145 1983 26 WP MM SARAH 1983-06-19 00:00:00 NR 5.90000 136.300 main 743 742 O_________O___ jtwc_wp WP011983 5.90000 136.300 15 -1 5.90000 136.300 1 15 8 298
1983167N05145 1983 26 WP MM SARAH 1983-06-19 03:00:00 NR 6.13141 135.955 main 763 762 P_________P___ WP011983 6.13506 135.948 15 -1 6.12958 135.958 1 15 9 306
1983167N05145 1983 26 WP MM SARAH 1983-06-19 06:00:00 NR 6.40706 135.609 main 795 795 O_________P___ jtwc_wp WP011983 6.40000 135.600 15 -1 6.41235 135.615 1 15 9 310
1983167N05145 1983 26 WP MM SARAH 1983-06-19 09:00:00 NR 6.71070 135.261 main 829 829 P_________P___ WP011983 6.70746 135.258 15 -1 6.71394 135.264 1 15 9 310
1983167N05145 1983 26 WP MM SARAH 1983-06-19 12:00:00 NR 7.00000 134.900 main 852 831 O_________O___ jtwc_wp WP011983 7.00000 134.900 15 -1 7.00000 134.900 1 15 9 305
1983167N05145 1983 26 WP MM SARAH 1983-06-19 15:00:00 NR 7.22833 134.521 main 831 812 P_________P___ WP011983 7.21498 134.507 15 -1 7.24168 134.535 1 15 9 299
1983167N05145 1983 26 WP MM SARAH 1983-06-19 18:00:00 NR 7.42985 134.126 main 812 794 O_________P___ jtwc_wp WP011983 7.40000 134.100 15 -1 7.45970 134.152 1 15 9 297
1983167N05145 1983 26 WP MM SARAH 1983-06-19 21:00:00 NR 7.63514 133.730 main 783 738 P_________P___ WP011983 7.62242 133.715 15 -1 7.64787 133.744 1 15 9 294
1983167N05145 1983 26 WP MM SARAH 1983-06-20 00:00:00 NR 7.80000 133.300 main 738 684 O_________O___ jtwc_wp WP011983 7.80000 133.300 15 -1 7.80000 133.300 1 15 9 285
1983167N05145 1983 26 WP MM SARAH 1983-06-20 03:00:00 NR 7.88387 132.819 main 684 628 P_________P___ WP011983 7.86496 132.822 15 -1 7.90278 132.815 1 15 10 278
1983167N05145 1983 26 WP MM SARAH 1983-06-20 06:00:00 NR 7.93622 132.297 main 628 574 O_________P___ jtwc_wp WP011983 7.90000 132.300 15 -1 7.97243 132.295 1 15 11 277
1983167N05145 1983 26 WP MM SARAH 1983-06-20 09:00:00 NR 8.01167 131.751 main 574 509 P_________P___ WP011983 7.99249 131.750 15 -1 8.03086 131.752 1 15 11 279
1983167N05145 1983 26 WP MM SARAH 1983-06-20 12:00:00 NR 8.10000 131.200 main 509 455 O_________O___ jtwc_wp WP011983 8.10000 131.200 15 -1 8.10000 131.200 1 15 11 280
1983167N05145 1983 26 WP MM SARAH 1983-06-20 15:00:00 NR 8.19724 130.692 main 455 402 P_________P___ WP011983 8.19235 130.707 15 -1 8.20212 130.677 1 15 10 282
1983167N05145 1983 26 WP MM SARAH 1983-06-20 18:00:00 NR 8.30972 130.172 main 402 339 O_________P___ jtwc_wp WP011983 8.30000 130.200 15 -1 8.31943 130.145 1 15 11 283
1983167N05145 1983 26 WP MM SARAH 1983-06-20 21:00:00 NR 8.45100 129.602 main 342 282 P_________P___ WP011983 8.44997 129.615 15 -1 8.45204 129.590 1 15 12 284
1983167N05145 1983 26 WP MM SARAH 1983-06-21 00:00:00 NR 8.60000 129.000 main 282 224 O_________O___ jtwc_wp WP011983 8.60000 129.000 15 -1 8.60000 129.000 1 15 12 282
1983167N05145 1983 26 WP MM SARAH 1983-06-21 03:00:00 NR 8.71448 128.398 main 224 163 P_________P___ WP011983 8.68479 128.422 17 -1 8.74416 128.373 1 17 13 282
1983167N05145 1983 26 WP MM SARAH 1983-06-21 06:00:00 NR 8.85233 127.755 main 165 90 O_________P___ jtwc_wp WP011983 8.80000 127.800 20 -1 8.90465 127.709 1 20 14 284
1983167N05145 1983 26 WP MM SARAH 1983-06-21 09:00:00 NR 9.05393 127.037 main 83 15 P_________P___ WP011983 9.02007 127.058 22 -1 9.08780 127.016 1 22 15 287
1983167N05145 1983 26 WP MM SARAH 1983-06-21 12:00:00 NR 9.30000 126.300 main 15 0 O_________O___ jtwc_wp WP011983 9.30000 126.300 25 -1 9.30000 126.300 1 25 15 290
1983167N05145 1983 26 WP MM SARAH 1983-06-21 15:00:00 NR 9.55863 125.616 main 0 0 P_________P___ WP011983 9.59961 125.665 25 -1 9.51765 125.567 1 23 15 291
1983167N05145 1983 26 WP MM SARAH 1983-06-21 18:00:00 NR 9.83364 124.907 main 24 0 O_________P___ jtwc_wp WP011983 9.90000 125.000 25 -1 9.76728 124.814 1 22 16 290
1983167N05145 1983 26 WP MM SARAH 1983-06-21 21:00:00 NR 10.0891 124.113 main 0 0 P_________P___ WP011983 10.1201 124.172 22 -1 10.0582 124.054 1 21 17 290
1983167N05145 1983 26 WP MM SARAH 1983-06-22 00:00:00 NR 10.4000 123.300 main 0 0 O_________O___ jtwc_wp WP011983 10.4000 123.300 20 -1 10.4000 123.300 1 20 18 296
1983167N05145 1983 26 WP MM SARAH 1983-06-22 03:00:00 NR 10.8646 122.520 main 0 0 P_________P___ WP011983 10.8774 122.470 17 -1 10.8519 122.569 1 18 18 303
1983167N05145 1983 26 WP MM SARAH 1983-06-22 06:00:00 NR 11.3721 121.772 main 32 32 O_________P___ jtwc_wp WP011983 11.4000 121.700 15 -1 11.3442 121.844 1 17 17 304
1983167N05145 1983 26 WP MM SARAH 1983-06-22 09:00:00 NR 11.8258 121.078 main 44 31 P_________P___ WP011983 11.8371 121.035 15 -1 11.8144 121.122 1 16 16 302
1983167N05145 1983 26 WP MM SARAH 1983-06-22 12:00:00 NR 12.2000 120.400 main 68 68 O_________O___ jtwc_wp WP011983 12.2000 120.400 15 -1 12.2000 120.400 1 15 15 295
1983167N05145 1983 26 WP MM SARAH 1983-06-22 15:00:00 NR 12.4722 119.680 main 116 116 P_________P___ WP011983 12.5098 119.715 17 -1 12.4346 119.646 1 15 15 287
1983167N05145 1983 26 WP MM SARAH 1983-06-22 18:00:00 NR 12.6387 118.948 main 159 159 O_________P___ jtwc_wp WP011983 12.7000 119.000 20 -1 12.5774 118.896 1 15 15 279
1983167N05145 1983 26 WP MM SARAH 1983-06-22 21:00:00 NR 12.6933 118.204 main 211 211 P_________P___ WP011983 12.7300 118.235 17 -1 12.6565 118.174 1 15 15 278
1983167N05145 1983 26 WP MM SARAH 1983-06-23 00:00:00 TS 12.8444 117.444 main 281 281 O_O_______O___ jtwc_wp WP011983 12.7000 117.500 15 -1 14.0000 117.000 0 19 1004 12.7000 117.500 1 15 13 280
1983167N05145 1983 26 WP MM SARAH 1983-06-23 03:00:00 TS 12.9202 116.908 main 332 332 P_P_______P___ WP011983 12.7498 116.863 15 -1 13.5876 117.025 0 19 1004 12.7569 116.895 1 16 9 270
1983167N05145 1983 26 WP MM SARAH 1983-06-23 06:00:00 TS 12.8496 116.505 main 362 362 O_O_______P___ jtwc_wp WP011983 12.8000 116.300 15 -1 13.0000 117.000 0 19 1004 12.7864 116.340 1 17 8 246
1983167N05145 1983 26 WP MM SARAH 1983-06-23 09:00:00 TS 12.5932 116.154 main 382 382 P_P_______P___ WP011983 12.8073 115.785 17 -1 12.1747 116.862 0 21 1004 12.7977 115.814 1 18 9 238
1983167N05145 1983 26 WP MM SARAH 1983-06-23 12:00:00 TS 12.3667 115.700 main 424 422 O_O_______O___ jtwc_wp WP011983 12.8000 115.300 20 -1 11.5000 116.500 1 23 1004 12.8000 115.300 1 20 11 254
1983167N05145 1983 26 WP MM SARAH 1983-06-23 15:00:00 TS 12.2958 115.114 main 455 455 P_P_______P___ WP011983 12.7999 114.808 22 -1 11.3130 115.788 1 23 1003 12.7746 114.747 1 21 12 269
1983167N05145 1983 26 WP MM SARAH 1983-06-23 18:00:00 TS 12.3491 114.501 main 500 488 O_O_______P___ jtwc_wp WP011983 12.8000 114.300 25 -1 11.5000 115.000 1 23 1003 12.7474 114.204 1 22 11 280
1983167N05145 1983 26 WP MM SARAH 1983-06-23 21:00:00 TS 12.5004 113.966 main 488 434 P_P_______P___ WP011983 12.7925 113.750 25 -1 11.9622 114.463 1 23 1003 12.7465 113.684 1 23 10 291
1983167N05145 1983 26 WP MM SARAH 1983-06-24 00:00:00 TS 12.7231 113.508 1004 tokyo main 434 390 OOO_______O___ jtwc_wp WP011983 12.8000 113.200 25 -1 13.0000 114.000 2 1004 0 0 0 12.5000 114.000 1 23 1003 12.8000 113.200 1 25 10 294
1983167N05145 1983 26 WP MM SARAH 1983-06-24 03:00:00 TS 12.8937 113.044 main 379 347 PPP_______P___ WP011983 12.7975 112.662 27 -1 13.2501 113.505 2 1003 0 0 12.7874 113.500 1 26 1001 12.9179 112.740 1 26 9 293
1983167N05145 1983 26 WP MM SARAH 1983-06-24 06:00:00 TS 13.0924 112.629 1002 tokyo main 336 295 OOOO______P___ jtwc_wp WP011983 12.9000 112.200 30 -1 13.5000 113.000 2 1002 0 0 0 13.0000 113.000 1 29 1000 13.0000 113.000 TD 30 1002 13.0947 112.318 1 27 9 300
1983167N05145 1983 26 WP MM SARAH 1983-06-24 09:00:00 TS 13.3543 112.223 main 297 271 PPPP______P___ WP011983 13.2049 111.863 30 -1 13.7500 112.485 2 1002 0 0 13.2350 112.477 1 29 1000 13.1602 112.483 TD 30 1002 13.3242 111.937 1 28 9 305
1983167N05145 1983 26 WP MM SARAH 1983-06-24 12:00:00 TS 13.6316 111.832 1002 tokyo main 261 237 OOOO______O___ jtwc_wp WP011983 13.6000 111.600 30 -1 14.0000 112.000 2 1002 0 0 0 13.5000 112.000 1 29 1000 13.4000 112.000 TD 30 1002 13.6000 111.600 1 30 9 310
1983167N05145 1983 26 WP MM SARAH 1983-06-24 15:00:00 TS 13.9408 111.491 main 237 207 PPPP______P___ WP011983 13.9499 111.342 30 -1 14.2499 111.577 2 1002 0 0 13.8198 111.635 1 29 1000 13.7699 111.578 TD 30 1001 13.9145 111.323 1 30 9 316
1983167N05145 1983 26 WP MM SARAH 1983-06-24 18:00:00 TS 14.2939 111.177 1002 tokyo main 209 189 OOOO______P___ jtwc_wp WP011983 14.3000 111.100 30 -1 14.5000 111.200 2 1002 0 0 0 14.2000 111.300 1 29 1000 14.2000 111.200 TD 30 1000 14.2694 111.085 1 30 10 320
1983167N05145 1983 26 WP MM SARAH 1983-06-24 21:00:00 TS 14.6624 110.858 main 193 162 PPPP______P___ WP011983 14.6499 110.865 30 -1 14.7424 110.842 2 1001 0 0 14.6575 110.900 1 29 999 14.6225 110.828 TD 30 999 14.6395 110.854 1 30 10 320
1983167N05145 1983 26 WP MM SARAH 1983-06-25 00:00:00 TS 15.0200 110.540 1000 tokyo main 154 135 OOOO______O___ jtwc_wp WP011983 15.0000 110.600 30 -1 15.0000 110.500 2 1000 0 0 0 15.1000 110.500 1 29 998 15.0000 110.500 TD 30 998 15.0000 110.600 1 30 9 318
1983167N05145 1983 26 WP MM SARAH 1983-06-25 03:00:00 TS 15.3419 110.230 main 135 116 PPPP______P___ WP011983 15.3650 110.265 32 -1 15.2998 110.172 2 999 0 0 15.4298 110.157 1 33 998 15.2723 110.257 TD 32 997 15.3426 110.299 1 31 9 315
1983167N05145 1983 26 WP MM SARAH 1983-06-25 06:00:00 TS 15.6334 109.894 35 998 tokyo main 116 100 OOOO______P___ jtwc_wp WP011983 15.7000 109.900 35 0 15.6000 109.800 3 35 998 0 9 50 50 0 15.7000 109.800 2 38 998 15.5000 110.000 TS 35 996 15.6671 109.968 1 32 9 308
1983167N05145 1983 26 WP MM SARAH 1983-06-25 09:00:00 TS 15.8870 109.504 main 100 82 PPPP______P___ WP011983 15.9873 109.572 35 0 15.8576 109.307 3 35 998 0 9 75 75 15.8821 109.416 2 38 998 15.7500 109.622 TS 35 996 15.9581 109.602 1 33 10 302
1983167N05145 1983 26 WP MM SARAH 1983-06-25 12:00:00 TS 16.1400 109.060 35 998 tokyo main 82 54 OOOO______O___ jtwc_wp WP011983 16.2000 109.200 35 0 16.1000 108.800 3 35 998 0 9 100 100 0 16.2000 108.900 2 38 998 16.0000 109.200 TS 35 996 16.2000 109.200 2 35 11 302
1983167N05145 1983 26 WP MM SARAH 1983-06-25 15:00:00 TS 16.4571 108.558 main 63 46 PPPP______P___ WP011983 16.3151 108.715 32 -1 16.3572 108.400 3 35 998 0 9 100 100 16.9657 108.110 2 38 998 16.2649 108.807 TS 35 996 16.3825 108.760 2 32 12 302
1983167N05145 1983 26 WP MM SARAH 1983-06-25 18:00:00 TS 16.7552 108.025 35 998 tokyo main 48 30 OOOO______P___ jtwc_wp WP011983 16.4000 108.200 30 -1 16.6000 108.000 3 35 998 0 9 100 100 0 17.7000 107.300 2 38 998 16.5000 108.400 TS 35 996 16.5161 108.290 2 30 11 296
1983167N05145 1983 26 WP MM SARAH 1983-06-25 21:00:00 TS 16.9372 107.526 main 24 0 PPPP______P___ WP011983 16.5574 107.743 27 -1 16.7625 107.515 3 999 0 9 17.9242 106.776 2 33 999 16.6651 107.935 TS 32 997 16.6166 107.800 2 27 10 289
1983167N05145 1983 26 WP MM SARAH 1983-06-26 00:00:00 TS 17.0857 107.043 1000 tokyo main 0 0 OOOO______O___ jtwc_wp WP011983 16.7000 107.300 25 -1 17.0000 107.000 2 1000 0 0 0 18.0000 106.300 1 29 1000 16.8000 107.500 TD 30 998 16.7000 107.300 1 25 10 295
1983167N05145 1983 26 WP MM SARAH 1983-06-26 03:00:00 TS 17.3657 106.543 main 0 0 PPPP__________ WP011983 16.7727 106.852 20 -1 17.4549 106.500 2 1000 0 0 18.2009 105.696 1 26 1000 16.9450 107.168 TD 27 998 1 12 306
1983167N05145 1983 26 WP MM SARAH 1983-06-26 06:00:00 TS 17.7714 106.043 1000 tokyo main 0 0 OOOO__________ jtwc_wp WP011983 16.8000 106.400 15 -1 18.0000 106.000 2 1000 0 0 0 18.5000 105.000 1 23 1000 17.1000 106.900 TD 25 998 1 16 319
1983167N05145 1983 26 WP MM SARAH 1983-06-26 09:00:00 TS 18.5752 105.426 main 0 0 _P____________ WP011983 -1 18.5752 105.426 2 1000 0 0 1 TD 1 16 321
1983167N05145 1983 26 WP MM SARAH 1983-06-26 12:00:00 TS 19.0000 105.000 1000 tokyo main 0 0 _O____________ -1 19.0000 105.000 2 1000 0 0 0 6 316
1983167N05145 1983 26 WP MM SARAH 1983-06-26 15:00:00 TS 18.9996 104.999 main 0 0 _P____________ -1 18.9996 104.999 2 1000 0 0 0 0
1983167N05145 1983 26 WP MM SARAH 1983-06-26 18:00:00 ET 19.0000 105.000 1000 tokyo main 0 0 _O____________ -1 19.0000 105.000 6 1000 0 0 0 6 321
1983167N05145 1983 26 WP MM SARAH 1983-06-26 21:00:00 ET 19.4928 104.576 main 0 0 _P____________ -1 19.4928 104.576 6 1000 0 0 14 317
1983167N05145 1983 26 WP MM SARAH 1983-06-27 00:00:00 ET 20.0000 104.000 1000 tokyo main 0 0 _O____________ -1 20.0000 104.000 6 1000 0 0 0 11 289
1983167N05145 1983 26 WP MM SARAH 1983-06-27 03:00:00 ET 19.8326 103.496 main 0 0 _P____________ -1 19.8326 103.496 6 1000 0 0 9 276
1983167N05145 1983 26 WP MM SARAH 1983-06-27 06:00:00 ET 20.1000 103.000 1000 tokyo main 0 0 _O____________ -1 20.1000 103.000 6 1000 0 0 0 20 333
1983167N05145 1983 26 WP MM SARAH 1983-06-27 09:00:00 ET 21.6478 102.506 main 0 0 _P____________ -1 21.6478 102.506 6 1000 0 0 40 347
1983167N05145 1983 26 WP MM SARAH 1983-06-27 12:00:00 ET 24.0000 102.000 1000 tokyo main 0 _O____________ -1 24.0000 102.000 6 1000 0 0 0 48 349

デジタル台風データ・検索

IBTrACS Databaseについて

本データベースは、米国NOAAが公開する1842年以降の世界の熱帯低気圧のベストトラックデータアーカイブInternational Best Track Archive for Climate Stewardship (IBTrACS)を、ウェブで閲覧しやすい形式に変換したものです。

最終更新日:2021-10-08